Time;durP1;ratioP1;P1;durP2;ratioP2;P2;SDS_P1;SDS_P2;PMS_P1;PMS_P2;Temp;Humidity;BMP_temperature;BMP_pressure;BME280_temperature;BME280_humidity;BME280_pressure;Samples;Min_cycle;Max_cycle;Signal;HPM_P1;HPM_P2
2021/10/19 00:02:04;;;;;;;14.52;10.85;;;7.30;99.90;;;;;;5002321;28;20089;-79
2021/10/19 00:04:30;;;;;;;12.88;9.85;;;7.30;99.90;;;;;;5003780;28;20010;-79
2021/10/19 00:06:55;;;;;;;13.48;10.13;;;7.20;99.90;;;;;;4985823;28;20022;-79
2021/10/19 00:09:21;;;;;;;16.15;11.75;;;7.20;99.90;;;;;;5003024;28;20195;-80
2021/10/19 00:11:47;;;;;;;18.73;12.48;;;7.20;99.90;;;;;;5000089;28;20026;-80
2021/10/19 00:14:13;;;;;;;17.73;12.32;;;7.10;99.90;;;;;;4985623;28;20057;-80
2021/10/19 00:16:38;;;;;;;16.70;12.07;;;7.10;99.90;;;;;;5010035;28;20050;-80
2021/10/19 00:19:04;;;;;;;16.30;11.18;;;7.10;99.90;;;;;;5005999;28;20022;-79
2021/10/19 00:21:31;;;;;;;16.95;11.82;;;7.20;99.90;;;;;;4979141;28;20110;-79
2021/10/19 00:23:56;;;;;;;17.08;11.85;;;7.20;99.90;;;;;;4983079;28;20102;-79
2021/10/19 00:26:22;;;;;;;14.55;10.68;;;7.20;99.90;;;;;;4999243;28;20026;-79
2021/10/19 00:28:48;;;;;;;16.73;10.98;;;7.20;99.90;;;;;;5004447;28;20022;-79
2021/10/19 00:31:14;;;;;;;18.10;11.68;;;7.30;99.90;;;;;;5004834;28;20422;-80
2021/10/19 00:33:40;;;;;;;19.50;11.48;;;7.30;99.90;;;;;;5004711;28;20042;-80
2021/10/19 00:36:05;;;;;;;14.90;10.98;;;7.40;99.90;;;;;;5005081;28;20041;-79
2021/10/19 00:38:31;;;;;;;14.35;9.75;;;7.40;99.90;;;;;;5005247;28;20037;-80
2021/10/19 00:40:57;;;;;;;15.20;10.00;;;7.40;99.90;;;;;;5005389;28;20462;-79
2021/10/19 00:43:25;;;;;;;12.25;8.90;;;7.40;99.90;;;;;;4992091;28;20055;-79
2021/10/19 00:45:51;;;;;;;14.65;8.60;;;7.40;99.90;;;;;;4985771;28;20095;-79
2021/10/19 00:48:17;;;;;;;11.93;8.43;;;7.40;99.90;;;;;;4983883;28;20029;-79
2021/10/19 00:50:45;;;;;;;13.57;8.55;;;7.40;99.90;;;;;;4980733;28;20472;-79
2021/10/19 00:53:13;;;;;;;10.35;8.13;;;7.50;99.90;;;;;;4991149;28;20026;-79
2021/10/19 00:55:39;;;;;;;9.65;7.50;;;7.40;99.90;;;;;;4999314;28;20442;-80
2021/10/19 00:58:08;;;;;;;9.55;7.00;;;7.40;99.90;;;;;;4983621;28;20065;-79
2021/10/19 01:00:35;;;;;;;8.40;6.68;;;7.40;99.90;;;;;;4983168;28;20054;-79
2021/10/19 01:03:01;;;;;;;7.82;6.20;;;7.40;99.90;;;;;;4999632;28;20034;-79
2021/10/19 01:05:28;;;;;;;8.00;6.20;;;7.40;99.90;;;;;;4999903;28;20145;-78
2021/10/19 01:07:54;;;;;;;7.22;5.35;;;7.40;99.90;;;;;;4999588;28;20023;-79
2021/10/19 01:10:20;;;;;;;6.07;5.07;;;7.40;99.90;;;;;;4999366;28;20069;-80
2021/10/19 01:12:45;;;;;;;5.57;4.25;;;7.40;99.90;;;;;;4997729;28;20082;-79
2021/10/19 01:15:16;;;;;;;6.68;4.85;;;7.40;99.90;;;;;;5000035;28;20086;-79
2021/10/19 01:17:44;;;;;;;6.47;4.75;;;7.30;99.90;;;;;;4999809;28;20511;-79
2021/10/19 01:20:28;;;;;;;5.22;4.30;;;7.30;99.90;;;;;;5001293;28;20050;-79
2021/10/19 01:22:54;;;;;;;5.20;4.15;;;7.30;99.90;;;;;;4999390;28;20047;-79
2021/10/19 01:25:23;;;;;;;4.05;3.38;;;7.30;99.90;;;;;;4996773;28;20077;-78
2021/10/19 01:27:58;;;;;;;5.60;4.30;;;7.30;99.90;;;;;;4997178;28;20026;-79
2021/10/19 01:30:25;;;;;;;5.47;4.68;;;7.30;99.90;;;;;;4998823;28;20569;-79
2021/10/19 01:32:52;;;;;;;4.88;3.90;;;7.30;99.90;;;;;;4998991;28;20030;-79
2021/10/19 01:35:17;;;;;;;4.35;3.95;;;7.30;99.90;;;;;;4999221;28;20069;-79
2021/10/19 01:37:44;;;;;;;4.35;3.60;;;7.40;99.90;;;;;;4999359;28;20022;-79
2021/10/19 01:40:15;;;;;;;4.55;3.80;;;7.40;99.90;;;;;;4981414;28;20034;-79
2021/10/19 01:42:42;;;;;;;4.55;3.75;;;7.40;99.90;;;;;;5000251;28;20403;-80
2021/10/19 01:45:17;;;;;;;4.70;3.78;;;7.40;99.90;;;;;;4989524;28;20027;-81
2021/10/19 01:47:44;;;;;;;6.47;4.10;;;7.30;99.90;;;;;;4980461;28;20337;-79
2021/10/19 01:50:12;;;;;;;5.53;4.20;;;7.30;99.90;;;;;;4961916;28;20051;-80
2021/10/19 01:52:38;;;;;;;4.60;3.80;;;7.30;99.90;;;;;;4962932;28;20095;-80
2021/10/19 01:55:05;;;;;;;4.10;3.70;;;7.30;99.90;;;;;;4988300;28;20030;-79
2021/10/19 01:57:34;;;;;;;4.68;4.00;;;7.30;99.90;;;;;;4997218;28;20084;-78
2021/10/19 02:00:00;;;;;;;4.75;3.72;;;7.20;99.90;;;;;;4995301;28;20073;-79
2021/10/19 02:02:26;;;;;;;5.40;3.40;;;7.20;99.90;;;;;;4997306;28;20062;-79
2021/10/19 02:04:52;;;;;;;4.07;3.50;;;7.10;99.90;;;;;;4998091;28;20054;-79
2021/10/19 02:07:17;;;;;;;4.40;3.72;;;7.10;99.90;;;;;;4980287;28;20030;-81
2021/10/19 02:09:43;;;;;;;3.95;3.30;;;7.20;99.90;;;;;;4994001;28;20111;-80
2021/10/19 02:12:09;;;;;;;4.10;3.47;;;7.10;99.90;;;;;;4986023;28;20034;-79
2021/10/19 02:14:34;;;;;;;3.58;2.95;;;7.10;99.90;;;;;;4964038;28;20023;-78
2021/10/19 02:17:00;;;;;;;3.63;3.25;;;7.00;99.90;;;;;;5006669;28;20027;-78
2021/10/19 02:19:28;;;;;;;4.40;3.35;;;7.10;99.90;;;;;;5007519;28;20038;-79
2021/10/19 02:21:53;;;;;;;4.15;3.33;;;7.10;99.90;;;;;;5001860;28;20030;-79
2021/10/19 02:24:20;;;;;;;4.45;3.90;;;7.00;99.90;;;;;;5002208;28;20041;-79
2021/10/19 02:26:46;;;;;;;4.07;3.42;;;7.00;99.90;;;;;;4993892;28;20033;-79
2021/10/19 02:29:14;;;;;;;3.40;3.00;;;7.00;99.90;;;;;;4983959;28;20494;-79
2021/10/19 02:31:40;;;;;;;4.68;3.72;;;7.00;99.90;;;;;;5001194;28;20085;-79
2021/10/19 02:34:06;;;;;;;4.15;3.70;;;7.00;99.90;;;;;;5001021;28;20051;-79
2021/10/19 02:36:33;;;;;;;4.15;3.67;;;7.00;99.90;;;;;;5000112;28;20014;-79
2021/10/19 02:39:02;;;;;;;6.65;3.95;;;7.00;99.90;;;;;;5001664;28;20018;-80
2021/10/19 02:41:27;;;;;;;5.47;3.65;;;7.00;99.90;;;;;;5005432;28;20090;-80
2021/10/19 02:43:54;;;;;;;4.72;3.58;;;7.00;99.90;;;;;;5003963;28;20050;-80
2021/10/19 02:46:21;;;;;;;4.68;3.75;;;7.00;99.90;;;;;;5000506;28;20267;-81
2021/10/19 02:48:48;;;;;;;6.10;4.20;;;6.90;99.90;;;;;;4965481;28;20054;-78
2021/10/19 02:51:14;;;;;;;5.28;4.05;;;7.00;99.90;;;;;;4981029;28;20030;-79
2021/10/19 02:53:39;;;;;;;4.13;3.38;;;7.00;99.90;;;;;;4980617;28;20173;-80
2021/10/19 02:56:05;;;;;;;4.03;3.45;;;7.00;99.90;;;;;;4995385;28;20109;-79
2021/10/19 02:58:31;;;;;;;4.85;3.60;;;7.00;99.90;;;;;;4983841;28;20042;-79
2021/10/19 03:00:57;;;;;;;5.60;3.60;;;6.90;99.90;;;;;;5001670;28;20034;-80
2021/10/19 03:03:22;;;;;;;4.95;3.58;;;6.90;99.90;;;;;;5002634;28;20035;-80
2021/10/19 03:05:48;;;;;;;4.72;3.67;;;6.90;99.90;;;;;;5003070;28;20034;-79
2021/10/19 03:08:14;;;;;;;4.40;2.97;;;6.90;99.90;;;;;;4971870;28;20119;-79
2021/10/19 03:10:39;;;;;;;3.72;3.15;;;6.90;99.90;;;;;;4984409;28;20105;-79
2021/10/19 03:13:05;;;;;;;3.78;2.78;;;7.00;99.90;;;;;;4981672;28;20394;-79
2021/10/19 03:15:32;;;;;;;3.95;2.88;;;6.90;99.90;;;;;;4980178;28;20023;-79
2021/10/19 03:17:57;;;;;;;2.97;2.47;;;6.90;99.90;;;;;;4988961;28;20022;-79
2021/10/19 03:20:23;;;;;;;2.92;2.47;;;6.90;99.90;;;;;;4999844;28;20010;-79
2021/10/19 03:22:49;;;;;;;2.17;1.77;;;6.90;99.90;;;;;;4981911;28;20611;-79
2021/10/19 03:25:14;;;;;;;2.72;2.20;;;6.90;99.90;;;;;;4998446;28;20077;-79
2021/10/19 03:27:40;;;;;;;2.42;2.15;;;6.90;99.90;;;;;;4997354;28;20117;-80
2021/10/19 03:30:06;;;;;;;2.88;2.30;;;6.90;99.90;;;;;;5000096;28;20030;-80
2021/10/19 03:32:32;;;;;;;4.05;2.65;;;6.90;99.90;;;;;;5000849;28;20026;-80
2021/10/19 03:34:58;;;;;;;2.35;2.15;;;6.90;99.90;;;;;;4998517;28;20026;-78
2021/10/19 03:37:24;;;;;;;2.78;2.28;;;6.90;99.90;;;;;;4997968;28;20030;-79
2021/10/19 03:39:50;;;;;;;2.53;2.15;;;6.90;99.90;;;;;;4980842;28;20031;-78
2021/10/19 03:42:16;;;;;;;2.40;2.20;;;6.90;99.90;;;;;;4986779;28;20102;-78
2021/10/19 03:44:42;;;;;;;2.70;1.90;;;6.80;99.90;;;;;;4990243;28;20133;-77
2021/10/19 03:47:08;;;;;;;2.65;2.30;;;6.80;99.90;;;;;;4997893;28;20051;-77
2021/10/19 03:49:34;;;;;;;2.53;2.33;;;6.80;99.90;;;;;;5004388;28;20034;-78
2021/10/19 03:52:00;;;;;;;2.45;2.25;;;6.80;99.90;;;;;;4996669;28;20027;-78
2021/10/19 03:54:26;;;;;;;2.92;2.38;;;6.80;99.90;;;;;;5000547;28;20093;-77
2021/10/19 03:56:52;;;;;;;3.22;2.50;;;6.80;99.90;;;;;;4998533;28;20033;-78
2021/10/19 03:59:17;;;;;;;3.28;2.67;;;6.80;99.90;;;;;;4998180;28;20534;-78
2021/10/19 04:01:43;;;;;;;3.25;2.58;;;6.80;99.90;;;;;;4997002;28;20061;-78
2021/10/19 04:04:09;;;;;;;2.88;2.38;;;6.80;99.90;;;;;;4997499;28;20041;-78
2021/10/19 04:06:35;;;;;;;2.20;2.00;;;6.80;99.90;;;;;;4998174;28;20030;-77
2021/10/19 04:09:01;;;;;;;2.92;2.45;;;6.90;99.90;;;;;;4995025;28;20023;-78
2021/10/19 04:11:26;;;;;;;2.97;2.20;;;6.80;99.90;;;;;;4977697;28;20031;-79
2021/10/19 04:13:52;;;;;;;2.05;1.92;;;6.90;99.90;;;;;;4978897;28;20030;-78
2021/10/19 04:16:18;;;;;;;2.40;1.98;;;6.90;99.90;;;;;;4977884;28;20023;-78
2021/10/19 04:18:44;;;;;;;3.35;2.55;;;6.90;99.90;;;;;;4960634;28;20027;-79
2021/10/19 04:21:10;;;;;;;2.20;2.00;;;6.90;99.90;;;;;;4994877;28;20030;-78
2021/10/19 04:23:36;;;;;;;1.65;1.55;;;6.90;99.90;;;;;;4981507;28;20046;-78
2021/10/19 04:26:02;;;;;;;2.08;1.83;;;6.90;99.90;;;;;;4999313;28;20036;-78
2021/10/19 04:28:28;;;;;;;1.92;1.60;;;6.90;99.90;;;;;;4997565;28;20030;-79
2021/10/19 04:30:53;;;;;;;2.58;2.08;;;6.90;99.90;;;;;;4996992;28;20080;-79
2021/10/19 04:33:19;;;;;;;2.35;1.60;;;6.90;99.90;;;;;;4997059;28;20068;-79
2021/10/19 04:35:45;;;;;;;2.35;2.13;;;6.90;99.90;;;;;;4996828;28;20105;-79
2021/10/19 04:38:12;;;;;;;2.25;2.03;;;6.90;99.90;;;;;;4996441;28;20045;-79
2021/10/19 04:40:38;;;;;;;2.50;2.08;;;6.90;99.90;;;;;;4987983;28;20026;-78
2021/10/19 04:43:04;;;;;;;2.05;1.52;;;6.90;99.90;;;;;;4976915;28;20044;-79
2021/10/19 04:45:30;;;;;;;2.65;2.03;;;6.90;99.90;;;;;;4977575;28;20018;-79
2021/10/19 04:47:57;;;;;;;2.38;2.10;;;6.90;99.90;;;;;;4977074;28;20019;-79
2021/10/19 04:50:23;;;;;;;2.88;2.40;;;6.90;99.90;;;;;;4963835;28;20330;-79
2021/10/19 04:52:49;;;;;;;3.05;2.47;;;6.90;99.90;;;;;;4973206;28;20410;-80
2021/10/19 04:55:15;;;;;;;2.53;2.30;;;6.90;99.90;;;;;;4988786;28;20034;-79
2021/10/19 04:57:41;;;;;;;2.30;2.10;;;6.90;99.90;;;;;;4995630;28;20038;-79
2021/10/19 05:00:07;;;;;;;2.25;1.88;;;6.90;99.90;;;;;;4995669;28;20026;-78
2021/10/19 05:02:33;;;;;;;3.35;2.20;;;6.90;99.90;;;;;;4994764;28;20510;-78
2021/10/19 05:04:59;;;;;;;4.30;2.72;;;6.90;99.90;;;;;;4995740;28;20038;-79
2021/10/19 05:07:24;;;;;;;3.00;2.40;;;6.80;99.90;;;;;;4997414;28;20030;-78
2021/10/19 05:09:50;;;;;;;3.05;2.45;;;6.90;99.90;;;;;;4979277;28;20032;-78
2021/10/19 05:12:16;;;;;;;4.05;2.50;;;6.90;99.90;;;;;;4965054;28;20031;-79
2021/10/19 05:14:41;;;;;;;2.80;2.50;;;7.00;99.90;;;;;;4977089;28;20035;-79
2021/10/19 05:17:08;;;;;;;2.95;2.65;;;6.90;99.90;;;;;;4975717;28;20038;-78
2021/10/19 05:19:34;;;;;;;3.90;2.20;;;7.00;99.90;;;;;;4975534;28;20022;-79
2021/10/19 05:21:59;;;;;;;3.97;2.13;;;7.00;99.90;;;;;;4983939;28;20513;-80
2021/10/19 05:24:25;;;;;;;2.53;2.10;;;7.00;99.90;;;;;;4995973;28;20026;-79
2021/10/19 05:26:51;;;;;;;2.67;2.20;;;7.00;99.90;;;;;;4979309;28;20064;-78
2021/10/19 05:29:17;;;;;;;2.78;2.38;;;7.00;99.90;;;;;;4996951;28;20027;-78
2021/10/19 05:31:42;;;;;;;3.88;2.97;;;7.10;99.90;;;;;;4978856;28;20084;-80
2021/10/19 05:34:08;;;;;;;3.53;2.55;;;7.10;99.90;;;;;;4999106;28;20534;-79
2021/10/19 05:36:35;;;;;;;2.95;2.30;;;7.10;99.90;;;;;;4997710;28;20041;-79
2021/10/19 05:39:01;;;;;;;4.05;2.33;;;7.20;99.90;;;;;;4995706;28;20022;-79
2021/10/19 05:41:27;;;;;;;4.57;2.33;;;7.20;99.90;;;;;;4995581;28;20384;-79
2021/10/19 05:43:53;;;;;;;3.38;2.15;;;7.30;99.90;;;;;;4977334;28;20082;-79
2021/10/19 05:46:18;;;;;;;4.22;2.20;;;7.30;99.90;;;;;;4977353;28;20106;-79
2021/10/19 05:48:44;;;;;;;4.95;2.80;;;7.40;99.90;;;;;;4959241;28;20441;-79
2021/10/19 05:51:10;;;;;;;2.63;2.20;;;7.50;99.90;;;;;;4978227;28;20065;-80
2021/10/19 05:53:35;;;;;;;3.05;2.20;;;7.50;99.90;;;;;;4993971;28;20491;-81
2021/10/19 05:56:01;;;;;;;5.53;2.40;;;7.60;99.90;;;;;;5000191;28;20026;-80
2021/10/19 05:58:28;;;;;;;4.03;2.17;;;7.70;99.90;;;;;;4973609;28;20066;-80
2021/10/19 06:00:53;;;;;;;3.85;2.55;;;7.80;99.90;;;;;;4983633;28;20034;-80
2021/10/19 06:03:19;;;;;;;4.28;2.35;;;7.80;99.90;;;;;;4995752;28;20030;-78
2021/10/19 06:05:46;;;;;;;2.45;1.80;;;7.80;99.90;;;;;;4989867;28;20039;-79
2021/10/19 06:08:11;;;;;;;2.60;1.80;;;7.90;99.90;;;;;;4975979;28;20026;-79
2021/10/19 06:10:37;;;;;;;3.83;2.00;;;7.90;99.90;;;;;;4977932;28;20027;-79
2021/10/19 06:13:03;;;;;;;4.40;2.97;;;8.00;99.90;;;;;;4977907;28;20042;-79
2021/10/19 06:15:29;;;;;;;3.50;2.53;;;8.00;99.90;;;;;;4969215;28;20026;-79
2021/10/19 06:17:54;;;;;;;4.53;2.50;;;8.10;99.90;;;;;;5003700;28;20447;-80
2021/10/19 06:20:20;;;;;;;2.28;2.05;;;8.20;99.90;;;;;;5003451;28;20076;-79
2021/10/19 06:22:46;;;;;;;3.13;2.40;;;8.20;99.90;;;;;;5005175;28;20042;-79
2021/10/19 06:25:12;;;;;;;3.00;2.20;;;8.30;99.90;;;;;;5001818;28;20028;-81
2021/10/19 06:27:38;;;;;;;5.15;2.60;;;8.40;99.90;;;;;;4983776;28;20026;-80
2021/10/19 06:30:04;;;;;;;5.00;2.67;;;8.40;99.90;;;;;;5001347;28;20049;-80
2021/10/19 06:32:30;;;;;;;3.40;2.72;;;8.40;99.90;;;;;;5001107;28;20418;-80
2021/10/19 06:34:56;;;;;;;5.65;2.80;;;8.50;99.90;;;;;;4983694;28;20061;-79
2021/10/19 06:37:22;;;;;;;5.43;2.63;;;8.60;99.90;;;;;;5000779;28;20098;-80
2021/10/19 06:39:48;;;;;;;3.38;2.58;;;8.60;99.90;;;;;;5002332;28;20356;-80
2021/10/19 06:42:13;;;;;;;3.92;2.63;;;8.70;99.90;;;;;;5001203;28;20088;-81
2021/10/19 06:44:39;;;;;;;3.72;2.33;;;8.80;99.90;;;;;;4995735;28;20086;-80
2021/10/19 06:47:05;;;;;;;2.45;2.05;;;8.90;99.90;;;;;;4995821;28;20359;-80
2021/10/19 06:49:30;;;;;;;5.15;3.00;;;9.00;99.90;;;;;;5002020;28;20054;-81
2021/10/19 06:51:56;;;;;;;4.82;1.90;;;9.10;99.90;;;;;;5000815;28;20038;-79
2021/10/19 06:54:22;;;;;;;3.60;2.55;;;9.20;99.90;;;;;;5000344;28;20022;-80
2021/10/19 06:56:48;;;;;;;3.97;2.53;;;9.20;99.90;;;;;;4982369;28;20015;-80
2021/10/19 06:59:13;;;;;;;2.45;2.00;;;9.30;99.80;;;;;;4982892;28;20456;-79
2021/10/19 07:01:39;;;;;;;4.00;2.25;;;9.40;99.60;;;;;;4981202;28;20058;-81
2021/10/19 07:04:05;;;;;;;3.92;2.05;;;9.50;99.10;;;;;;4999951;28;20030;-80
2021/10/19 07:06:30;;;;;;;3.75;2.25;;;9.70;98.70;;;;;;4999501;28;20080;-79
2021/10/19 07:08:57;;;;;;;2.38;1.90;;;9.80;98.20;;;;;;4985486;28;20510;-79
2021/10/19 07:11:26;;;;;;;2.22;1.80;;;10.00;97.60;;;;;;4983800;28;20031;-80
2021/10/19 07:13:53;;;;;;;2.60;2.13;;;10.10;97.20;;;;;;4965991;28;20070;-81
2021/10/19 07:16:19;;;;;;;4.45;1.90;;;10.20;96.80;;;;;;4983120;28;20034;-80
2021/10/19 07:18:45;;;;;;;2.55;1.58;;;10.20;96.50;;;;;;4998369;28;20031;-79
2021/10/19 07:21:10;;;;;;;2.05;1.77;;;10.30;96.20;;;;;;5000724;28;20058;-79
2021/10/19 07:23:36;;;;;;;2.78;1.88;;;10.50;95.90;;;;;;4999241;28;20129;-79
2021/10/19 07:26:02;;;;;;;3.78;2.10;;;10.70;95.50;;;;;;5000190;28;20034;-81
2021/10/19 07:28:28;;;;;;;2.72;2.05;;;10.90;94.80;;;;;;4969090;28;20360;-80
2021/10/19 07:30:54;;;;;;;2.80;1.40;;;11.00;94.30;;;;;;4943644;28;20022;-82
2021/10/19 07:33:19;;;;;;;2.45;1.75;;;11.10;93.90;;;;;;4929595;28;20030;-81
2021/10/19 07:35:45;;;;;;;2.33;1.77;;;11.10;93.50;;;;;;4970233;28;20117;-80
2021/10/19 07:38:15;;;;;;;2.60;2.13;;;11.10;93.20;;;;;;4998147;28;20030;-80
2021/10/19 07:40:40;;;;;;;3.28;1.88;;;11.20;92.90;;;;;;4982176;28;20057;-80
2021/10/19 07:43:06;;;;;;;2.25;1.55;;;11.30;92.60;;;;;;4999285;28;20027;-80
2021/10/19 07:45:34;;;;;;;1.77;1.60;;;11.40;92.00;;;;;;4983467;28;20034;-81
2021/10/19 07:48:03;;;;;;;2.47;1.90;;;11.50;91.70;;;;;;4988094;28;20026;-80
2021/10/19 07:50:30;;;;;;;4.47;2.20;;;11.50;91.60;;;;;;4981281;28;20046;-80
2021/10/19 07:52:57;;;;;;;4.88;2.30;;;11.60;91.10;;;;;;5000481;28;20034;-80
2021/10/19 07:55:24;;;;;;;2.33;1.60;;;11.70;90.50;;;;;;4999958;28;20018;-80
2021/10/19 07:57:51;;;;;;;2.30;2.10;;;11.70;90.40;;;;;;4997133;28;20090;-79
2021/10/19 08:00:27;;;;;;;2.75;1.65;;;11.80;90.20;;;;;;4997700;28;20038;-79
2021/10/19 08:02:54;;;;;;;5.28;1.73;;;11.80;90.00;;;;;;4998126;28;20026;-79
2021/10/19 08:05:20;;;;;;;1.98;1.50;;;11.80;89.10;;;;;;5003073;28;20019;-80
2021/10/19 08:07:49;;;;;;;1.77;1.55;;;11.80;89.50;;;;;;5005082;28;20019;-81
2021/10/19 08:10:18;;;;;;;2.28;1.70;;;11.90;89.60;;;;;;4988159;28;20028;-81
2021/10/19 08:12:45;;;;;;;2.40;1.90;;;12.00;89.20;;;;;;4963627;28;20049;-81
2021/10/19 08:15:12;;;;;;;2.72;2.25;;;12.10;88.60;;;;;;4972308;28;20451;-80
2021/10/19 08:17:37;;;;;;;2.30;2.00;;;12.40;88.20;;;;;;5000293;28;20026;-80
2021/10/19 08:20:04;;;;;;;2.25;2.05;;;12.70;87.40;;;;;;4986182;28;20093;-79
2021/10/19 08:22:31;;;;;;;1.55;1.45;;;12.90;86.30;;;;;;4976790;28;20031;-79
2021/10/19 08:24:58;;;;;;;2.42;1.80;;;13.00;84.80;;;;;;4979921;28;20026;-79
2021/10/19 08:27:25;;;;;;;5.43;1.80;;;13.10;83.30;;;;;;4996053;28;20050;-79
2021/10/19 08:29:52;;;;;;;2.45;1.70;;;13.10;82.30;;;;;;4996341;28;20151;-78
2021/10/19 08:32:18;;;;;;;3.80;2.10;;;13.00;81.90;;;;;;5001016;28;20079;-79
2021/10/19 08:34:43;;;;;;;2.80;1.48;;;12.80;81.70;;;;;;4997466;28;20046;-80
2021/10/19 08:37:09;;;;;;;1.80;1.60;;;12.80;81.90;;;;;;4997784;28;20030;-80
2021/10/19 08:39:35;;;;;;;3.88;1.40;;;12.70;82.00;;;;;;4980481;28;20058;-81
2021/10/19 08:42:01;;;;;;;5.72;1.75;;;12.70;82.30;;;;;;4997574;28;20483;-81
2021/10/19 08:44:28;;;;;;;1.75;1.60;;;12.70;82.50;;;;;;4998666;28;20022;-80
2021/10/19 08:46:54;;;;;;;2.03;1.60;;;12.70;82.50;;;;;;4998651;28;20030;-80
2021/10/19 08:49:20;;;;;;;1.60;1.50;;;12.60;82.40;;;;;;4998885;28;20065;-80
2021/10/19 08:51:46;;;;;;;2.13;1.75;;;12.70;82.20;;;;;;4963107;28;20066;-81
2021/10/19 08:54:12;;;;;;;2.60;1.80;;;12.70;81.70;;;;;;4982833;28;20039;-80
2021/10/19 08:56:41;;;;;;;3.05;2.38;;;12.80;81.30;;;;;;4999202;28;20049;-80
2021/10/19 08:59:09;;;;;;;9.60;5.25;;;12.90;81.00;;;;;;4998708;28;20034;-80
2021/10/19 09:01:38;;;;;;;6.97;5.90;;;12.90;80.40;;;;;;4997049;28;20546;-80
2021/10/19 09:04:12;;;;;;;8.93;7.22;;;13.10;80.10;;;;;;4997512;28;20045;-80
2021/10/19 09:06:40;;;;;;;8.18;6.20;;;13.10;80.20;;;;;;4998840;28;20023;-81
2021/10/19 09:09:16;;;;;;;6.57;5.45;;;13.10;79.20;;;;;;4999454;28;20058;-81
2021/10/19 09:11:47;;;;;;;7.10;4.97;;;13.10;79.00;;;;;;4988278;28;20035;-81
2021/10/19 09:14:14;;;;;;;7.32;4.55;;;13.20;78.90;;;;;;4979190;28;20034;-81
2021/10/19 09:16:41;;;;;;;5.47;3.70;;;13.30;78.50;;;;;;4979504;28;20081;-82
2021/10/19 09:19:08;;;;;;;3.75;2.80;;;13.30;78.10;;;;;;4963067;28;20035;-81
2021/10/19 09:21:34;;;;;;;2.88;2.20;;;13.30;77.70;;;;;;4986371;28;20113;-80
2021/10/19 09:24:21;;;;;;;3.47;2.42;;;13.40;77.50;;;;;;4982131;28;20551;-81
2021/10/19 09:26:58;;;;;;;2.00;1.80;;;13.60;77.40;;;;;;4981639;28;20077;-80
2021/10/19 09:29:26;;;;;;;4.88;1.77;;;13.60;76.90;;;;;;4999247;28;20026;-80
2021/10/19 09:31:54;;;;;;;3.58;2.00;;;13.70;76.80;;;;;;4983071;28;20030;-81
2021/10/19 09:34:20;;;;;;;1.63;1.52;;;13.70;76.60;;;;;;4983938;28;20121;-81
2021/10/19 09:36:49;;;;;;;2.72;1.70;;;13.80;76.40;;;;;;4999598;28;20102;-81
2021/10/19 09:39:37;;;;;;;1.75;1.65;;;13.90;76.00;;;;;;4999512;28;20022;-80
2021/10/19 09:42:25;;;;;;;2.50;1.75;;;14.00;75.30;;;;;;4993056;28;20087;-81
2021/10/19 09:44:57;;;;;;;3.13;1.70;;;14.10;74.90;;;;;;4980380;28;20019;-81
2021/10/19 09:47:27;;;;;;;1.45;1.35;;;14.10;74.80;;;;;;4979508;28;20018;-81
2021/10/19 09:49:54;;;;;;;2.38;1.92;;;14.30;74.50;;;;;;4979884;28;20114;-81
2021/10/19 09:52:20;;;;;;;2.90;1.83;;;14.40;74.10;;;;;;4979148;28;20073;-82
2021/10/19 09:54:50;;;;;;;2.85;1.98;;;14.50;73.10;;;;;;4980977;28;20022;-80
2021/10/19 09:57:17;;;;;;;4.30;2.25;;;14.50;72.70;;;;;;4981400;28;20021;-80
2021/10/19 09:59:43;;;;;;;3.65;1.63;;;14.50;72.40;;;;;;4999162;28;20023;-80
2021/10/19 10:02:13;;;;;;;2.17;1.83;;;14.50;72.50;;;;;;4998338;28;20030;-80
2021/10/19 10:04:40;;;;;;;1.45;1.33;;;14.50;72.90;;;;;;4998190;28;20392;-80
2021/10/19 10:07:10;;;;;;;2.30;1.88;;;14.60;73.20;;;;;;4997260;28;20117;-81
2021/10/19 10:09:37;;;;;;;6.13;1.90;;;14.60;73.50;;;;;;4999175;28;20022;-81
2021/10/19 10:12:07;;;;;;;2.70;1.88;;;14.80;73.70;;;;;;4999847;28;20034;-81
2021/10/19 10:14:46;;;;;;;1.85;1.75;;;14.80;74.00;;;;;;4981863;28;20033;-80
2021/10/19 10:17:13;;;;;;;2.42;1.50;;;14.90;74.30;;;;;;4979845;28;20022;-80
2021/10/19 10:19:39;;;;;;;1.98;1.52;;;14.90;74.40;;;;;;4980486;28;20023;-79
2021/10/19 10:22:43;;;;;;;2.20;1.70;;;15.00;74.80;;;;;;4980094;28;20054;-81
2021/10/19 10:25:14;;;;;;;3.85;1.88;;;15.10;74.80;;;;;;4959313;28;20093;-80
2021/10/19 10:27:41;;;;;;;2.08;1.88;;;15.10;75.00;;;;;;4982092;28;20022;-80
2021/10/19 10:30:24;;;;;;;2.03;1.83;;;15.10;74.90;;;;;;5001470;28;20042;-80
2021/10/19 10:32:50;;;;;;;1.83;1.48;;;15.10;75.30;;;;;;5001998;28;20030;-80
2021/10/19 10:35:18;;;;;;;2.72;1.70;;;15.00;75.90;;;;;;4986723;28;20085;-80
2021/10/19 10:37:53;;;;;;;2.20;1.40;;;15.00;76.50;;;;;;4981570;28;20019;-81
2021/10/19 10:40:38;;;;;;;2.13;1.75;;;15.10;76.80;;;;;;4968764;28;20019;-79
2021/10/19 10:43:16;;;;;;;1.95;1.67;;;15.20;77.10;;;;;;4970027;28;20039;-81
2021/10/19 10:45:42;;;;;;;1.70;1.60;;;15.30;77.10;;;;;;4982978;28;20039;-80
2021/10/19 10:48:08;;;;;;;1.58;1.38;;;15.40;76.70;;;;;;4981670;28;20078;-80
2021/10/19 10:50:35;;;;;;;2.17;1.75;;;15.50;76.00;;;;;;4963161;28;20125;-82
2021/10/19 10:53:08;;;;;;;2.72;1.40;;;15.70;75.60;;;;;;4979867;28;20023;-79
2021/10/19 10:55:45;;;;;;;1.38;1.27;;;15.80;75.30;;;;;;4994109;28;20143;-80
2021/10/19 10:58:22;;;;;;;1.20;1.10;;;15.90;75.20;;;;;;4999778;28;20029;-80
2021/10/19 11:00:47;;;;;;;1.83;1.20;;;16.10;74.80;;;;;;4980989;28;20031;-80
2021/10/19 11:03:26;;;;;;;1.83;1.70;;;16.30;74.10;;;;;;4985620;28;20101;-86
2021/10/19 11:06:00;;;;;;;1.77;1.40;;;16.60;72.70;;;;;;4988582;28;20034;-81
2021/10/19 11:08:35;;;;;;;1.77;1.02;;;16.70;71.40;;;;;;4993529;28;20034;-82
2021/10/19 11:11:13;;;;;;;2.55;1.50;;;16.90;71.30;;;;;;4993140;28;20077;-82
2021/10/19 11:13:54;;;;;;;4.00;1.40;;;17.10;70.00;;;;;;4984513;28;20103;-82
2021/10/19 11:16:30;;;;;;;1.55;1.33;;;17.10;69.10;;;;;;4986672;28;20031;-82
2021/10/19 11:18:57;;;;;;;3.08;1.95;;;17.20;69.00;;;;;;4983734;28;20031;-82
2021/10/19 11:21:23;;;;;;;1.60;1.50;;;17.20;68.50;;;;;;4985056;28;20042;-82
2021/10/19 11:23:48;;;;;;;1.98;1.70;;;17.10;68.50;;;;;;4982489;28;20039;-81
2021/10/19 11:26:14;;;;;;;2.58;2.00;;;17.10;68.50;;;;;;4991915;28;20416;-83
2021/10/19 11:28:43;;;;;;;1.73;1.50;;;16.90;68.80;;;;;;4982371;28;20110;-81
2021/10/19 11:31:10;;;;;;;1.88;1.77;;;16.90;69.50;;;;;;4981717;28;20030;-81
2021/10/19 11:33:40;;;;;;;2.38;1.52;;;16.80;70.10;;;;;;4987351;28;20071;-82
2021/10/19 11:36:06;;;;;;;3.53;1.90;;;16.80;70.60;;;;;;5006788;28;20021;-82
2021/10/19 11:38:39;;;;;;;2.20;1.90;;;16.90;70.30;;;;;;5018440;28;20034;-82
2021/10/19 11:41:06;;;;;;;2.08;1.83;;;17.00;70.30;;;;;;5004173;28;20033;-83
2021/10/19 11:43:32;;;;;;;2.50;1.55;;;17.10;70.50;;;;;;5001803;28;20041;-83
2021/10/19 11:45:58;;;;;;;3.80;2.10;;;17.30;70.10;;;;;;4983546;28;20030;-83
2021/10/19 11:48:24;;;;;;;4.93;2.50;;;17.50;69.40;;;;;;5000420;28;20026;-83
2021/10/19 11:50:50;;;;;;;5.10;2.08;;;17.50;69.10;;;;;;5001706;28;20030;-82
2021/10/19 11:53:16;;;;;;;2.90;1.90;;;17.60;68.10;;;;;;5001489;28;20014;-83
2021/10/19 11:55:42;;;;;;;3.22;1.88;;;17.60;67.50;;;;;;4990331;28;20037;-82
2021/10/19 11:58:08;;;;;;;3.58;2.10;;;17.70;66.90;;;;;;4967046;28;20400;-81
2021/10/19 12:00:36;;;;;;;1.73;1.63;;;17.70;66.00;;;;;;4980970;28;20041;-83
2021/10/19 12:03:03;;;;;;;1.75;1.65;;;17.80;65.70;;;;;;4981705;28;20073;-82
2021/10/19 12:05:30;;;;;;;1.40;1.30;;;17.90;65.60;;;;;;4982139;28;20516;-82
2021/10/19 12:07:58;;;;;;;1.38;0.88;;;17.90;65.50;;;;;;4985215;28;20026;-82
2021/10/19 12:10:29;;;;;;;1.20;1.13;;;18.00;65.30;;;;;;5001283;28;20098;-82
2021/10/19 12:12:59;;;;;;;1.10;1.00;;;18.10;65.20;;;;;;5000746;28;20022;-82
2021/10/19 12:15:28;;;;;;;1.20;1.10;;;18.10;65.10;;;;;;4997481;28;20357;-84
2021/10/19 12:18:02;;;;;;;1.20;1.00;;;18.10;64.80;;;;;;4981543;28;20022;-82
2021/10/19 12:20:31;;;;;;;0.95;0.95;;;18.10;64.80;;;;;;4981936;28;20436;-82
2021/10/19 12:22:59;;;;;;;1.67;0.98;;;18.20;64.60;;;;;;4981692;28;20027;-82
2021/10/19 12:25:25;;;;;;;1.67;1.27;;;18.10;64.40;;;;;;4982685;28;20059;-81
2021/10/19 12:27:51;;;;;;;6.03;2.55;;;18.10;63.80;;;;;;4981295;28;20042;-82
2021/10/19 12:30:18;;;;;;;3.92;2.58;;;18.10;61.40;;;;;;4981167;28;20023;-83
2021/10/19 12:32:45;;;;;;;4.93;2.33;;;18.10;61.70;;;;;;4980843;28;20023;-83
2021/10/19 12:35:12;;;;;;;3.47;2.10;;;18.00;61.50;;;;;;4980873;28;20037;-83
2021/10/19 12:37:39;;;;;;;3.53;2.80;;;18.10;61.80;;;;;;4983878;28;20038;-83
2021/10/19 12:40:10;;;;;;;2.63;2.20;;;18.10;61.40;;;;;;5000328;28;20095;-82
2021/10/19 12:42:36;;;;;;;2.03;1.77;;;18.10;62.10;;;;;;4999734;28;20383;-83
2021/10/19 12:45:03;;;;;;;2.33;1.70;;;18.00;62.50;;;;;;4999978;28;20034;-82
2021/10/19 12:47:28;;;;;;;3.28;2.17;;;17.90;62.80;;;;;;4998392;28;20034;-82
2021/10/19 12:49:54;;;;;;;6.80;2.63;;;17.90;62.80;;;;;;4998957;28;20057;-83
2021/10/19 12:52:21;;;;;;;4.70;2.00;;;18.00;62.60;;;;;;4998268;28;20143;-82